Time;durP1;ratioP1;P1;durP2;ratioP2;P2;SDS_P1;SDS_P2;PMS_P1;PMS_P2;Temp;Humidity;BMP_temperature;BMP_pressure;BME280_temperature;BME280_humidity;BME280_pressure;Samples;Min_cycle;Max_cycle;Signal;HPM_P1;HPM_P2
2022/02/28 00:00:19;;;;;;;0.85;0.40;;;;;;;;;;1878140;76;26688;-43
2022/02/28 00:02:48;;;;;;;0.28;0.28;;;;;;;;;;1871636;76;26803;-43
2022/02/28 00:05:15;;;;;;;0.40;0.40;;;;;;;;;;1866487;76;26287;-43
2022/02/28 00:07:43;;;;;;;0.60;0.60;;;;;;;;;;1879406;76;26186;-43
2022/02/28 00:10:11;;;;;;;0.42;0.42;;;;;;;;;;1880067;76;26263;-44
2022/02/28 00:12:38;;;;;;;0.37;0.37;;;;;;;;;;1876171;76;26846;-44
2022/02/28 00:15:07;;;;;;;0.33;0.33;;;;;;;;;;1858031;76;26318;-43
2022/02/28 00:17:35;;;;;;;0.47;0.35;;;;;;;;;;1875610;76;25320;-43
2022/02/28 00:20:06;;;;;;;0.40;0.40;;;;;;;;;;1869943;75;26643;-43
2022/02/28 00:22:34;;;;;;;0.50;0.50;;;;;;;;;;1877639;76;26662;-43
2022/02/28 00:25:02;;;;;;;0.50;0.50;;;;;;;;;;1846593;76;26321;-44
2022/02/28 00:27:30;;;;;;;0.28;0.23;;;;;;;;;;1880535;76;26311;-43
2022/02/28 00:29:57;;;;;;;0.40;0.40;;;;;;;;;;1877942;76;26263;-44
2022/02/28 00:32:25;;;;;;;0.40;0.40;;;;;;;;;;1859350;75;26254;-43
2022/02/28 00:34:52;;;;;;;1.27;0.40;;;;;;;;;;1861778;76;26246;-43
2022/02/28 00:37:20;;;;;;;0.50;0.50;;;;;;;;;;1869617;76;26574;-43
2022/02/28 00:39:47;;;;;;;0.50;0.50;;;;;;;;;;1866561;76;26257;-43
2022/02/28 00:42:15;;;;;;;1.55;0.30;;;;;;;;;;1863273;75;26732;-43
2022/02/28 00:44:42;;;;;;;0.50;0.50;;;;;;;;;;1873577;75;26293;-43
2022/02/28 00:47:09;;;;;;;0.40;0.40;;;;;;;;;;1878654;76;26269;-43
2022/02/28 00:49:37;;;;;;;0.30;0.30;;;;;;;;;;1857931;76;26327;-43
2022/02/28 00:52:05;;;;;;;0.30;0.30;;;;;;;;;;1856480;75;26287;-43
2022/02/28 00:54:32;;;;;;;0.30;0.25;;;;;;;;;;1855580;76;26789;-44
2022/02/28 00:56:59;;;;;;;0.35;0.35;;;;;;;;;;1875919;76;26304;-44
2022/02/28 00:59:27;;;;;;;0.40;0.40;;;;;;;;;;1858942;76;26226;-44
2022/02/28 01:01:54;;;;;;;0.40;0.40;;;;;;;;;;1868032;76;26251;-45
2022/02/28 01:04:21;;;;;;;0.30;0.30;;;;;;;;;;1874764;76;26758;-45
2022/02/28 01:06:49;;;;;;;0.40;0.40;;;;;;;;;;1867420;76;26866;-44
2022/02/28 01:09:16;;;;;;;0.40;0.40;;;;;;;;;;1856734;76;26281;-44
2022/02/28 01:11:43;;;;;;;0.47;0.30;;;;;;;;;;1853671;76;26336;-44
2022/02/28 01:14:11;;;;;;;0.30;0.30;;;;;;;;;;1878410;76;26705;-44
2022/02/28 01:16:38;;;;;;;0.42;0.42;;;;;;;;;;1847860;76;26222;-44
2022/02/28 01:19:06;;;;;;;0.40;0.40;;;;;;;;;;1872345;76;26331;-43
2022/02/28 01:21:33;;;;;;;0.37;0.37;;;;;;;;;;1864058;76;26293;-43
2022/02/28 01:24:00;;;;;;;0.40;0.40;;;;;;;;;;1878276;76;26339;-43
2022/02/28 01:26:28;;;;;;;0.93;0.42;;;;;;;;;;1862575;76;26418;-44
2022/02/28 01:28:55;;;;;;;0.30;0.30;;;;;;;;;;1865426;76;26753;-44
2022/02/28 01:31:22;;;;;;;0.40;0.40;;;;;;;;;;1864422;76;26253;-43
2022/02/28 01:33:50;;;;;;;0.30;0.30;;;;;;;;;;1856301;76;26288;-43
2022/02/28 01:36:17;;;;;;;1.45;0.30;;;;;;;;;;1863892;76;26279;-44
2022/02/28 01:38:44;;;;;;;0.33;0.33;;;;;;;;;;1871387;76;26273;-43
2022/02/28 01:41:12;;;;;;;0.40;0.40;;;;;;;;;;1852610;76;26364;-43
2022/02/28 01:43:39;;;;;;;0.37;0.37;;;;;;;;;;1879647;76;26749;-42
2022/02/28 01:46:06;;;;;;;0.47;0.47;;;;;;;;;;1869707;75;26350;-44
2022/02/28 01:48:33;;;;;;;0.40;0.40;;;;;;;;;;1869003;75;26252;-43
2022/02/28 01:51:01;;;;;;;0.30;0.30;;;;;;;;;;1865526;76;26264;-44
2022/02/28 01:53:29;;;;;;;0.30;0.30;;;;;;;;;;1874024;76;26312;-44
2022/02/28 01:55:56;;;;;;;0.30;0.30;;;;;;;;;;1872168;75;26307;-44
2022/02/28 01:58:23;;;;;;;0.35;0.35;;;;;;;;;;1875960;76;26254;-44
2022/02/28 02:00:52;;;;;;;0.40;0.40;;;;;;;;;;1867201;76;26315;-43
2022/02/28 02:03:19;;;;;;;0.40;0.40;;;;;;;;;;1870870;75;26335;-44
2022/02/28 02:05:46;;;;;;;0.30;0.30;;;;;;;;;;1875449;76;26650;-44
2022/02/28 02:08:14;;;;;;;0.20;0.20;;;;;;;;;;1863943;76;26367;-43
2022/02/28 02:10:41;;;;;;;0.30;0.30;;;;;;;;;;1874053;76;26912;-43
2022/02/28 02:13:10;;;;;;;0.40;0.40;;;;;;;;;;1877636;76;26329;-45
2022/02/28 02:15:38;;;;;;;0.33;0.33;;;;;;;;;;1858185;75;26277;-44
2022/02/28 02:18:05;;;;;;;0.40;0.40;;;;;;;;;;1857324;76;26714;-43
2022/02/28 02:20:34;;;;;;;0.30;0.30;;;;;;;;;;1863063;75;26895;-44
2022/02/28 02:23:02;;;;;;;0.30;0.30;;;;;;;;;;1875867;75;26901;-44
2022/02/28 02:25:30;;;;;;;0.40;0.40;;;;;;;;;;1880043;76;26777;-44
2022/02/28 02:27:57;;;;;;;0.40;0.40;;;;;;;;;;1870721;76;26303;-44
2022/02/28 02:30:25;;;;;;;0.30;0.30;;;;;;;;;;1867782;75;27564;-43
2022/02/28 02:32:53;;;;;;;0.30;0.30;;;;;;;;;;1880103;76;26222;-43
2022/02/28 02:35:20;;;;;;;0.20;0.20;;;;;;;;;;1877768;76;26246;-43
2022/02/28 02:37:48;;;;;;;0.30;0.30;;;;;;;;;;1878436;76;26252;-44
2022/02/28 02:40:16;;;;;;;0.20;0.20;;;;;;;;;;1872569;76;26739;-43
2022/02/28 02:42:43;;;;;;;0.40;0.40;;;;;;;;;;1880772;76;26193;-43
2022/02/28 02:45:11;;;;;;;0.20;0.20;;;;;;;;;;1873762;76;26749;-42
2022/02/28 02:47:38;;;;;;;0.23;0.23;;;;;;;;;;1860220;75;26330;-44
2022/02/28 02:50:05;;;;;;;0.28;0.28;;;;;;;;;;1878977;76;26346;-45
2022/02/28 02:52:33;;;;;;;0.37;0.37;;;;;;;;;;1875053;75;26694;-43
2022/02/28 02:55:00;;;;;;;0.40;0.40;;;;;;;;;;1865447;75;26261;-43
2022/02/28 02:57:28;;;;;;;0.33;0.33;;;;;;;;;;1853588;76;26217;-44
2022/02/28 02:59:55;;;;;;;0.40;0.40;;;;;;;;;;1868688;76;26261;-45
2022/02/28 03:02:22;;;;;;;0.40;0.40;;;;;;;;;;1877200;76;26257;-44
2022/02/28 03:04:49;;;;;;;0.20;0.20;;;;;;;;;;1871605;76;26285;-43
2022/02/28 03:07:18;;;;;;;0.85;0.40;;;;;;;;;;1874179;76;26268;-43
2022/02/28 03:09:45;;;;;;;0.28;0.28;;;;;;;;;;1868352;75;26751;-44
2022/02/28 03:12:13;;;;;;;0.40;0.40;;;;;;;;;;1852393;76;26212;-45
2022/02/28 03:14:41;;;;;;;0.23;0.23;;;;;;;;;;1864500;75;26654;-43
2022/02/28 03:17:08;;;;;;;0.30;0.30;;;;;;;;;;1860611;75;26253;-45
2022/02/28 03:19:36;;;;;;;0.30;0.30;;;;;;;;;;1861617;75;26778;-46
2022/02/28 03:22:03;;;;;;;0.20;0.20;;;;;;;;;;1871608;76;26721;-43
2022/02/28 03:24:31;;;;;;;0.23;0.23;;;;;;;;;;1869981;76;26319;-43
2022/02/28 03:26:58;;;;;;;0.20;0.20;;;;;;;;;;1868116;76;26276;-44
2022/02/28 03:29:25;;;;;;;0.20;0.20;;;;;;;;;;1868452;76;26769;-42
2022/02/28 03:31:53;;;;;;;0.30;0.30;;;;;;;;;;1869894;76;26292;-42
2022/02/28 03:34:20;;;;;;;0.30;0.30;;;;;;;;;;1865936;76;26301;-42
2022/02/28 03:36:47;;;;;;;0.33;0.33;;;;;;;;;;1860902;76;26268;-44
2022/02/28 03:39:15;;;;;;;0.30;0.30;;;;;;;;;;1880493;76;26244;-43
2022/02/28 03:41:42;;;;;;;0.20;0.20;;;;;;;;;;1869937;75;26410;-42
2022/02/28 03:44:10;;;;;;;0.20;0.20;;;;;;;;;;1859374;76;26257;-43
2022/02/28 03:46:37;;;;;;;0.30;0.30;;;;;;;;;;1877179;76;26355;-42
2022/02/28 03:49:05;;;;;;;0.30;0.20;;;;;;;;;;1868614;76;26268;-44
2022/02/28 03:51:32;;;;;;;0.30;0.30;;;;;;;;;;1861394;76;26194;-42
2022/02/28 03:53:59;;;;;;;0.50;0.40;;;;;;;;;;1879952;76;26386;-43
2022/02/28 03:56:26;;;;;;;0.40;0.40;;;;;;;;;;1879687;75;26324;-43
2022/02/28 03:58:54;;;;;;;0.20;0.20;;;;;;;;;;1880819;76;27261;-42
2022/02/28 04:01:21;;;;;;;0.20;0.20;;;;;;;;;;1879717;76;26250;-43
2022/02/28 04:03:48;;;;;;;0.20;0.20;;;;;;;;;;1803132;79;26287;-43
2022/02/28 04:06:16;;;;;;;0.30;0.30;;;;;;;;;;1839952;78;26366;-43
2022/02/28 04:08:43;;;;;;;0.30;0.30;;;;;;;;;;1862427;76;26213;-42
2022/02/28 04:11:10;;;;;;;0.20;0.20;;;;;;;;;;1880901;75;26311;-41
2022/02/28 04:13:37;;;;;;;0.20;0.20;;;;;;;;;;1880434;76;26277;-44
2022/02/28 04:16:05;;;;;;;0.45;0.35;;;;;;;;;;1870166;76;26336;-42
2022/02/28 04:18:32;;;;;;;0.13;0.13;;;;;;;;;;1876238;76;26725;-42
2022/02/28 04:21:00;;;;;;;0.20;0.20;;;;;;;;;;1878298;75;26439;-42
2022/02/28 04:23:27;;;;;;;0.30;0.30;;;;;;;;;;1864837;76;26641;-42
2022/02/28 04:25:54;;;;;;;0.20;0.20;;;;;;;;;;1859457;75;26756;-43
2022/02/28 04:28:21;;;;;;;0.20;0.20;;;;;;;;;;1878345;76;26701;-42
2022/02/28 04:30:49;;;;;;;0.30;0.30;;;;;;;;;;1877457;76;26283;-43
2022/02/28 04:33:16;;;;;;;0.20;0.20;;;;;;;;;;1878608;76;26269;-42
2022/02/28 04:35:43;;;;;;;0.28;0.28;;;;;;;;;;1866359;76;26210;-42
2022/02/28 04:38:10;;;;;;;0.23;0.23;;;;;;;;;;1856080;76;26307;-42
2022/02/28 04:40:38;;;;;;;0.28;0.28;;;;;;;;;;1868023;76;26210;-42
2022/02/28 04:43:05;;;;;;;0.30;0.30;;;;;;;;;;1859578;76;26201;-42
2022/02/28 04:45:33;;;;;;;0.30;0.30;;;;;;;;;;1859558;76;26267;-42
2022/02/28 04:48:00;;;;;;;0.20;0.20;;;;;;;;;;1888523;76;26847;-43
2022/02/28 04:50:27;;;;;;;0.20;0.20;;;;;;;;;;1874416;75;26203;-43
2022/02/28 04:52:55;;;;;;;0.30;0.30;;;;;;;;;;1864800;76;26292;-42
2022/02/28 04:55:22;;;;;;;0.25;0.25;;;;;;;;;;1886700;75;26386;-42
2022/02/28 04:57:50;;;;;;;0.20;0.20;;;;;;;;;;1884267;76;27159;-44
2022/02/28 05:00:18;;;;;;;0.30;0.30;;;;;;;;;;1884894;76;27004;-44
2022/02/28 05:02:45;;;;;;;0.68;0.30;;;;;;;;;;1888882;76;26284;-42
2022/02/28 05:05:13;;;;;;;0.20;0.20;;;;;;;;;;1879714;76;26799;-43
2022/02/28 05:07:40;;;;;;;0.20;0.20;;;;;;;;;;1863524;76;26218;-43
2022/02/28 05:10:08;;;;;;;0.30;0.30;;;;;;;;;;1876838;76;26296;-43
2022/02/28 05:12:35;;;;;;;0.20;0.20;;;;;;;;;;1886791;76;26204;-45
2022/02/28 05:15:03;;;;;;;0.30;0.30;;;;;;;;;;1881735;76;26283;-44
2022/02/28 05:17:30;;;;;;;0.30;0.30;;;;;;;;;;1886268;76;26379;-45
2022/02/28 05:19:58;;;;;;;0.23;0.23;;;;;;;;;;1882546;76;26646;-43
2022/02/28 05:22:25;;;;;;;0.40;0.40;;;;;;;;;;1872944;76;26190;-45
2022/02/28 05:24:52;;;;;;;0.30;0.30;;;;;;;;;;1877756;76;26315;-45
2022/02/28 05:27:20;;;;;;;0.10;0.10;;;;;;;;;;1880543;76;26237;-43
2022/02/28 05:29:47;;;;;;;0.28;0.28;;;;;;;;;;1876362;76;26290;-44
2022/02/28 05:32:15;;;;;;;0.20;0.20;;;;;;;;;;1877516;76;26299;-43
2022/02/28 05:34:42;;;;;;;0.20;0.20;;;;;;;;;;1866221;76;26275;-43
2022/02/28 05:37:09;;;;;;;0.23;0.23;;;;;;;;;;1876661;76;26261;-43
2022/02/28 05:39:37;;;;;;;0.30;0.30;;;;;;;;;;1871763;76;26279;-43
2022/02/28 05:42:04;;;;;;;0.45;0.30;;;;;;;;;;1883468;76;26280;-44
2022/02/28 05:44:31;;;;;;;0.40;0.40;;;;;;;;;;1873810;76;26840;-43
2022/02/28 05:46:59;;;;;;;0.25;0.25;;;;;;;;;;1873688;76;26240;-43
2022/02/28 05:49:26;;;;;;;0.30;0.30;;;;;;;;;;1876256;76;26312;-44
2022/02/28 05:51:53;;;;;;;0.20;0.20;;;;;;;;;;1874394;76;26201;-43
2022/02/28 05:54:20;;;;;;;0.40;0.40;;;;;;;;;;1872067;76;26383;-44
2022/02/28 05:56:48;;;;;;;0.30;0.30;;;;;;;;;;1866257;76;26444;-43
2022/02/28 05:59:15;;;;;;;0.30;0.30;;;;;;;;;;1874520;76;26277;-44
2022/02/28 06:01:42;;;;;;;0.40;0.40;;;;;;;;;;1874688;76;26717;-43
2022/02/28 06:04:09;;;;;;;0.40;0.40;;;;;;;;;;1875678;76;26969;-43
2022/02/28 06:06:37;;;;;;;1.20;0.30;;;;;;;;;;1870721;76;27161;-45
2022/02/28 06:09:04;;;;;;;0.40;0.40;;;;;;;;;;1874153;75;26321;-45
2022/02/28 06:11:32;;;;;;;0.40;0.40;;;;;;;;;;1874503;75;26340;-43
2022/02/28 06:13:59;;;;;;;0.93;0.30;;;;;;;;;;1876690;76;26771;-43
2022/02/28 06:16:26;;;;;;;0.45;0.40;;;;;;;;;;1882534;76;26273;-44
2022/02/28 06:18:54;;;;;;;0.30;0.30;;;;;;;;;;1880239;76;26315;-44
2022/02/28 06:21:21;;;;;;;0.20;0.20;;;;;;;;;;1879568;76;26261;-43
2022/02/28 06:23:48;;;;;;;0.45;0.40;;;;;;;;;;1889543;76;26257;-44
2022/02/28 06:26:16;;;;;;;0.37;0.37;;;;;;;;;;1877073;76;26258;-44
2022/02/28 06:28:43;;;;;;;1.70;0.40;;;;;;;;;;1884376;76;26811;-43
2022/02/28 06:31:10;;;;;;;0.30;0.25;;;;;;;;;;1869183;76;26799;-43
2022/02/28 06:33:38;;;;;;;1.10;0.30;;;;;;;;;;1880129;76;26271;-43
2022/02/28 06:36:05;;;;;;;0.20;0.20;;;;;;;;;;1871105;76;26331;-42
2022/02/28 06:38:33;;;;;;;0.40;0.40;;;;;;;;;;1878306;76;26209;-43
2022/02/28 06:41:00;;;;;;;2.12;0.50;;;;;;;;;;1882947;76;26252;-42
2022/02/28 06:43:28;;;;;;;0.40;0.40;;;;;;;;;;1881317;76;26358;-43
2022/02/28 06:45:56;;;;;;;0.42;0.40;;;;;;;;;;1889980;76;26296;-43
2022/02/28 06:48:23;;;;;;;0.62;0.40;;;;;;;;;;1882100;76;26354;-43
2022/02/28 06:50:51;;;;;;;0.72;0.35;;;;;;;;;;1877857;76;26277;-43
2022/02/28 06:53:20;;;;;;;1.05;0.53;;;;;;;;;;1873499;75;26303;-44
2022/02/28 06:55:47;;;;;;;0.85;0.35;;;;;;;;;;1866396;76;26269;-43
2022/02/28 06:58:21;;;;;;;0.40;0.40;;;;;;;;;;1868878;75;26690;-43
2022/02/28 07:00:44;;;;;;;0.35;0.35;;;;;;;;;;1862260;75;26272;-43
2022/02/28 07:03:12;;;;;;;0.75;0.40;;;;;;;;;;1865989;76;26199;-43
2022/02/28 07:05:40;;;;;;;0.40;0.40;;;;;;;;;;1865906;76;26785;-43
2022/02/28 07:08:08;;;;;;;1.60;0.50;;;;;;;;;;1867773;75;26198;-44
2022/02/28 07:10:37;;;;;;;0.35;0.35;;;;;;;;;;1857103;76;26521;-43
2022/02/28 07:13:05;;;;;;;0.68;0.30;;;;;;;;;;1858780;76;26269;-43
2022/02/28 07:15:33;;;;;;;0.80;0.28;;;;;;;;;;1878194;76;26270;-43
2022/02/28 07:18:00;;;;;;;0.65;0.40;;;;;;;;;;1861814;76;26673;-43
2022/02/28 07:20:28;;;;;;;0.40;0.40;;;;;;;;;;1849404;76;26282;-44
2022/02/28 07:22:55;;;;;;;0.33;0.33;;;;;;;;;;1874542;76;26206;-47
2022/02/28 07:25:22;;;;;;;0.40;0.40;;;;;;;;;;1868799;76;26720;-47
2022/02/28 07:27:49;;;;;;;0.30;0.30;;;;;;;;;;1864952;76;26776;-47
2022/02/28 07:30:17;;;;;;;0.70;0.40;;;;;;;;;;1872734;75;26918;-47
2022/02/28 07:32:44;;;;;;;0.90;0.40;;;;;;;;;;1867679;76;26371;-48
2022/02/28 07:35:12;;;;;;;0.75;0.47;;;;;;;;;;1873818;76;26300;-46
2022/02/28 07:37:39;;;;;;;0.95;0.50;;;;;;;;;;1868516;75;26292;-49
2022/02/28 07:40:12;;;;;;;0.37;0.37;;;;;;;;;;1863106;76;26261;-45
2022/02/28 07:42:37;;;;;;;0.85;0.40;;;;;;;;;;1869305;76;26258;-46
2022/02/28 07:45:05;;;;;;;0.50;0.50;;;;;;;;;;1854831;75;26194;-46
2022/02/28 07:47:33;;;;;;;0.60;0.60;;;;;;;;;;1858028;76;26599;-47
2022/02/28 07:50:00;;;;;;;0.45;0.45;;;;;;;;;;1857551;75;26220;-44
2022/02/28 07:52:27;;;;;;;0.30;0.30;;;;;;;;;;1865749;76;26280;-45
2022/02/28 07:54:55;;;;;;;0.50;0.50;;;;;;;;;;1858846;76;26718;-47
2022/02/28 07:57:22;;;;;;;0.65;0.50;;;;;;;;;;1865404;76;26269;-48
2022/02/28 07:59:50;;;;;;;0.62;0.62;;;;;;;;;;1860216;76;26819;-46
2022/02/28 08:02:17;;;;;;;0.50;0.50;;;;;;;;;;1854421;76;26667;-45
2022/02/28 08:04:44;;;;;;;1.27;0.50;;;;;;;;;;1845327;76;28749;-46
2022/02/28 08:07:11;;;;;;;0.53;0.40;;;;;;;;;;1860551;76;26279;-46
2022/02/28 08:09:39;;;;;;;0.50;0.50;;;;;;;;;;1866699;76;26217;-46
2022/02/28 08:12:06;;;;;;;0.33;0.33;;;;;;;;;;1867170;76;26333;-45
2022/02/28 08:14:35;;;;;;;1.02;0.53;;;;;;;;;;1860884;76;26815;-54
2022/02/28 08:17:03;;;;;;;2.50;0.90;;;;;;;;;;1851138;76;28251;-46
2022/02/28 08:19:30;;;;;;;1.25;0.50;;;;;;;;;;1862239;76;26204;-46
2022/02/28 08:21:58;;;;;;;7.83;0.60;;;;;;;;;;1864319;75;26622;-46
2022/02/28 08:24:25;;;;;;;1.98;0.85;;;;;;;;;;1857736;75;26292;-48
2022/02/28 08:26:52;;;;;;;1.50;0.55;;;;;;;;;;1868591;76;26323;-47
2022/02/28 08:29:20;;;;;;;0.40;0.40;;;;;;;;;;1857514;75;26663;-46
2022/02/28 08:31:47;;;;;;;0.57;0.40;;;;;;;;;;1867513;76;26325;-44
2022/02/28 08:34:16;;;;;;;14.83;1.40;;;;;;;;;;1857647;76;26799;-44
2022/02/28 08:36:43;;;;;;;0.40;0.40;;;;;;;;;;1866037;76;26249;-44
2022/02/28 08:39:11;;;;;;;0.65;0.53;;;;;;;;;;1860434;76;26373;-45
2022/02/28 08:41:38;;;;;;;0.40;0.40;;;;;;;;;;1870564;76;26790;-49
2022/02/28 08:44:07;;;;;;;2.00;0.80;;;;;;;;;;1869899;76;26745;-47
2022/02/28 08:46:38;;;;;;;0.93;0.60;;;;;;;;;;1864058;76;26288;-48
2022/02/28 08:49:06;;;;;;;0.50;0.50;;;;;;;;;;1866590;76;27530;-49
2022/02/28 08:51:33;;;;;;;0.53;0.50;;;;;;;;;;1877073;76;26350;-47
2022/02/28 08:54:00;;;;;;;0.50;0.50;;;;;;;;;;1873433;76;26218;-49
2022/02/28 08:56:27;;;;;;;0.40;0.40;;;;;;;;;;1866065;76;26315;-47
2022/02/28 08:58:55;;;;;;;0.57;0.57;;;;;;;;;;1867967;76;26281;-50
2022/02/28 09:01:22;;;;;;;0.50;0.50;;;;;;;;;;1874175;76;28727;-45
2022/02/28 09:03:50;;;;;;;0.90;0.45;;;;;;;;;;1873674;76;26264;-45
2022/02/28 09:06:17;;;;;;;0.60;0.60;;;;;;;;;;1889643;76;26283;-49
2022/02/28 09:08:44;;;;;;;0.53;0.53;;;;;;;;;;1888597;76;26276;-47
2022/02/28 09:11:11;;;;;;;0.50;0.50;;;;;;;;;;1877360;76;26260;-47
2022/02/28 09:13:39;;;;;;;0.57;0.50;;;;;;;;;;1879931;76;26705;-44
2022/02/28 09:16:06;;;;;;;1.00;0.60;;;;;;;;;;1880888;76;26632;-46
2022/02/28 09:18:34;;;;;;;0.50;0.50;;;;;;;;;;1861381;76;26382;-46
2022/02/28 09:21:02;;;;;;;0.50;0.50;;;;;;;;;;1879206;76;26736;-47
2022/02/28 09:23:29;;;;;;;1.65;0.40;;;;;;;;;;1872807;76;26265;-43
2022/02/28 09:25:56;;;;;;;2.20;0.60;;;;;;;;;;1882892;76;26261;-48
2022/02/28 09:28:23;;;;;;;0.33;0.33;;;;;;;;;;1871922;76;26304;-45
2022/02/28 09:30:52;;;;;;;0.50;0.50;;;;;;;;;;1869996;76;26358;-51
2022/02/28 09:33:19;;;;;;;0.42;0.42;;;;;;;;;;1883099;75;26662;-48
2022/02/28 09:35:48;;;;;;;0.50;0.50;;;;;;;;;;1877292;76;26292;-47
2022/02/28 09:38:17;;;;;;;0.50;0.50;;;;;;;;;;1882554;76;26804;-46
2022/02/28 09:40:46;;;;;;;0.53;0.53;;;;;;;;;;1866380;76;26806;-46
2022/02/28 09:43:14;;;;;;;0.60;0.60;;;;;;;;;;1879931;76;26680;-46
2022/02/28 09:45:41;;;;;;;1.02;0.62;;;;;;;;;;1858160;76;26340;-46
2022/02/28 09:48:10;;;;;;;0.70;0.70;;;;;;;;;;1881617;76;26311;-50
2022/02/28 09:50:38;;;;;;;0.50;0.50;;;;;;;;;;1879583;76;26716;-47
2022/02/28 09:53:08;;;;;;;0.40;0.40;;;;;;;;;;1873514;76;26339;-52
2022/02/28 09:55:35;;;;;;;0.72;0.60;;;;;;;;;;1871668;76;26425;-51
2022/02/28 09:58:03;;;;;;;0.50;0.50;;;;;;;;;;1883274;74;26335;-50
2022/02/28 10:00:30;;;;;;;0.50;0.50;;;;;;;;;;1887607;76;26276;-52
2022/02/28 10:02:59;;;;;;;0.70;0.70;;;;;;;;;;1874553;75;26359;-47
2022/02/28 10:05:27;;;;;;;0.60;0.60;;;;;;;;;;1875710;76;26296;-44
2022/02/28 10:07:55;;;;;;;1.27;0.55;;;;;;;;;;1872027;76;26253;-48
2022/02/28 10:10:24;;;;;;;0.62;0.62;;;;;;;;;;1874731;76;26736;-46
2022/02/28 10:12:53;;;;;;;0.68;0.68;;;;;;;;;;1872714;76;26307;-49
2022/02/28 10:15:22;;;;;;;0.60;0.60;;;;;;;;;;1869337;76;28152;-44
2022/02/28 10:17:56;;;;;;;0.45;0.45;;;;;;;;;;1876201;75;26792;-44
2022/02/28 10:20:28;;;;;;;0.50;0.50;;;;;;;;;;1872213;76;26345;-47
2022/02/28 10:22:57;;;;;;;0.50;0.50;;;;;;;;;;1878147;76;26248;-46
2022/02/28 10:25:31;;;;;;;0.70;0.70;;;;;;;;;;1873981;76;26370;-46
2022/02/28 10:28:09;;;;;;;0.53;0.53;;;;;;;;;;1875229;76;26663;-46
2022/02/28 10:30:37;;;;;;;0.53;0.53;;;;;;;;;;1868606;76;26378;-44
2022/02/28 10:33:08;;;;;;;0.60;0.60;;;;;;;;;;1869465;76;26319;-45
2022/02/28 10:38:25;;;;;;;0.55;0.55;;;;;;;;;;1880827;76;26922;-44
2022/02/28 10:40:53;;;;;;;3.40;0.70;;;;;;;;;;1871376;76;26284;-46
2022/02/28 10:43:28;;;;;;;2.25;0.62;;;;;;;;;;1875376;75;26272;-48
2022/02/28 10:45:57;;;;;;;0.53;0.53;;;;;;;;;;1876757;76;26763;-46
2022/02/28 10:48:25;;;;;;;0.80;0.70;;;;;;;;;;1873750;76;26786;-48
2022/02/28 10:50:52;;;;;;;0.50;0.50;;;;;;;;;;1877908;76;26258;-47
2022/02/28 10:53:23;;;;;;;0.75;0.57;;;;;;;;;;1871250;76;25775;-46
2022/02/28 10:55:52;;;;;;;0.62;0.60;;;;;;;;;;1873593;75;27429;-46
2022/02/28 10:58:24;;;;;;;1.65;0.72;;;;;;;;;;1879809;76;26914;-46
2022/02/28 11:00:54;;;;;;;0.40;0.40;;;;;;;;;;1875044;76;26363;-51
2022/02/28 11:03:21;;;;;;;0.50;0.50;;;;;;;;;;1888751;76;26285;-46
2022/02/28 11:05:49;;;;;;;2.10;0.50;;;;;;;;;;1880690;76;26261;-50
2022/02/28 11:08:21;;;;;;;5.42;0.78;;;;;;;;;;1884778;76;26596;-45
2022/02/28 11:10:50;;;;;;;0.82;0.82;;;;;;;;;;1871401;76;26305;-45
2022/02/28 11:13:17;;;;;;;0.50;0.50;;;;;;;;;;1888652;76;26268;-47
2022/02/28 11:15:44;;;;;;;0.57;0.57;;;;;;;;;;1885780;76;26312;-46
2022/02/28 11:18:16;;;;;;;0.42;0.42;;;;;;;;;;1878619;76;26343;-45
2022/02/28 11:20:41;;;;;;;0.57;0.57;;;;;;;;;;1868093;76;26310;-46
2022/02/28 11:23:08;;;;;;;2.47;0.60;;;;;;;;;;1878638;76;26261;-44
2022/02/28 11:25:36;;;;;;;1.35;0.70;;;;;;;;;;1858775;76;26719;-45
2022/02/28 11:28:03;;;;;;;0.70;0.70;;;;;;;;;;1882901;76;26267;-45
2022/02/28 11:30:31;;;;;;;0.50;0.50;;;;;;;;;;1871687;75;26735;-44
2022/02/28 11:33:00;;;;;;;0.85;0.50;;;;;;;;;;1886504;76;26261;-45
2022/02/28 11:35:38;;;;;;;0.40;0.40;;;;;;;;;;1882226;76;26292;-48
2022/02/28 11:38:06;;;;;;;0.60;0.60;;;;;;;;;;1871010;76;26249;-46
2022/02/28 11:40:35;;;;;;;0.53;0.50;;;;;;;;;;1880962;76;26756;-45
2022/02/28 11:43:13;;;;;;;2.45;0.80;;;;;;;;;;1877792;76;26367;-47
2022/02/28 11:45:44;;;;;;;0.93;0.53;;;;;;;;;;1883106;76;26310;-47
2022/02/28 11:48:13;;;;;;;1.12;0.50;;;;;;;;;;1856917;76;26748;-45
2022/02/28 11:50:42;;;;;;;0.53;0.50;;;;;;;;;;1865911;76;26743;-45
2022/02/28 11:53:12;;;;;;;0.50;0.50;;;;;;;;;;1860065;76;26293;-44
2022/02/28 11:55:39;;;;;;;0.50;0.50;;;;;;;;;;1850947;76;26311;-48
2022/02/28 11:58:13;;;;;;;1.05;0.50;;;;;;;;;;1858281;76;26975;-48
2022/02/28 12:00:48;;;;;;;0.57;0.50;;;;;;;;;;1862273;76;26347;-44
2022/02/28 12:03:17;;;;;;;0.60;0.60;;;;;;;;;;1862541;75;26311;-46
2022/02/28 12:05:44;;;;;;;0.40;0.40;;;;;;;;;;1864901;76;26277;-44
2022/02/28 12:08:12;;;;;;;0.40;0.40;;;;;;;;;;1865103;75;26718;-47
2022/02/28 12:10:40;;;;;;;0.60;0.60;;;;;;;;;;1871075;75;26346;-44
2022/02/28 12:13:07;;;;;;;0.50;0.50;;;;;;;;;;1871735;76;26772;-45
2022/02/28 12:15:35;;;;;;;1.55;0.55;;;;;;;;;;1868556;76;26708;-45
2022/02/28 12:18:02;;;;;;;0.40;0.40;;;;;;;;;;1870798;76;26237;-47
2022/02/28 12:20:34;;;;;;;0.30;0.30;;;;;;;;;;1864155;75;26812;-49
2022/02/28 12:23:06;;;;;;;0.50;0.50;;;;;;;;;;1874813;75;25798;-45
2022/02/28 12:25:34;;;;;;;0.50;0.50;;;;;;;;;;1853168;76;26343;-46
2022/02/28 12:28:23;;;;;;;0.42;0.42;;;;;;;;;;1864012;76;26353;-45
2022/02/28 12:30:57;;;;;;;0.50;0.50;;;;;;;;;;1862818;76;26578;-46
2022/02/28 12:33:25;;;;;;;0.40;0.40;;;;;;;;;;1874364;76;26264;-45
2022/02/28 12:35:55;;;;;;;0.50;0.50;;;;;;;;;;1873099;76;28153;-46
2022/02/28 12:38:24;;;;;;;2.92;0.47;;;;;;;;;;1879784;76;26292;-47
2022/02/28 12:40:53;;;;;;;0.60;0.60;;;;;;;;;;1860852;76;26290;-46
2022/02/28 12:43:21;;;;;;;1.25;0.40;;;;;;;;;;1863157;76;26684;-45
2022/02/28 12:45:50;;;;;;;0.60;0.60;;;;;;;;;;1869941;76;26327;-46
2022/02/28 12:48:18;;;;;;;0.33;0.33;;;;;;;;;;1860568;76;26317;-45
2022/02/28 12:50:50;;;;;;;0.42;0.42;;;;;;;;;;1861500;76;26277;-43
2022/02/28 12:53:17;;;;;;;0.57;0.57;;;;;;;;;;1849190;76;26269;-48
2022/02/28 12:55:55;;;;;;;1.40;0.50;;;;;;;;;;1874398;75;26792;-49
2022/02/28 12:58:24;;;;;;;0.47;0.47;;;;;;;;;;1855995;76;26725;-47
2022/02/28 13:00:51;;;;;;;0.50;0.50;;;;;;;;;;1873970;76;26251;-45
2022/02/28 13:03:19;;;;;;;0.57;0.47;;;;;;;;;;1868985;75;26239;-46
2022/02/28 13:05:57;;;;;;;1.20;0.90;;;;;;;;;;1859724;75;29841;-44
2022/02/28 13:08:25;;;;;;;0.50;0.50;;;;;;;;;;1865608;76;26354;-44
2022/02/28 13:11:10;;;;;;;0.45;0.45;;;;;;;;;;1870207;76;26257;-45
2022/02/28 13:13:38;;;;;;;0.50;0.50;;;;;;;;;;1861091;76;26261;-44
2022/02/28 13:16:06;;;;;;;0.47;0.47;;;;;;;;;;1874340;75;26264;-45
2022/02/28 13:18:34;;;;;;;0.72;0.72;;;;;;;;;;1879735;76;26289;-46
2022/02/28 13:21:01;;;;;;;0.30;0.30;;;;;;;;;;1868002;75;26271;-43
2022/02/28 13:23:28;;;;;;;0.40;0.40;;;;;;;;;;1868267;76;26276;-45
2022/02/28 13:25:57;;;;;;;3.72;0.40;;;;;;;;;;1868474;76;26296;-46
2022/02/28 13:28:38;;;;;;;0.57;0.57;;;;;;;;;;1879688;76;26291;-44
2022/02/28 13:31:07;;;;;;;0.60;0.60;;;;;;;;;;1871575;76;26359;-45
2022/02/28 13:33:36;;;;;;;0.50;0.50;;;;;;;;;;1868972;75;26362;-45
2022/02/28 13:36:04;;;;;;;0.50;0.50;;;;;;;;;;1848263;76;26317;-47
2022/02/28 13:38:32;;;;;;;0.50;0.50;;;;;;;;;;1859745;76;26212;-45
2022/02/28 13:40:59;;;;;;;0.40;0.40;;;;;;;;;;1867773;76;26258;-45
2022/02/28 13:43:31;;;;;;;0.40;0.40;;;;;;;;;;1866764;76;26289;-44
2022/02/28 13:45:59;;;;;;;0.40;0.40;;;;;;;;;;1854223;76;26785;-45
2022/02/28 13:48:29;;;;;;;0.40;0.40;;;;;;;;;;1877773;76;27653;-45
2022/02/28 13:50:58;;;;;;;0.40;0.40;;;;;;;;;;1876400;76;26293;-45
2022/02/28 13:53:27;;;;;;;0.40;0.40;;;;;;;;;;1872118;76;26284;-46
2022/02/28 13:55:54;;;;;;;0.40;0.40;;;;;;;;;;1887595;75;26280;-43
2022/02/28 13:58:28;;;;;;;0.50;0.50;;;;;;;;;;1865417;74;26791;-42
2022/02/28 14:00:57;;;;;;;0.60;0.60;;;;;;;;;;1866245;76;26339;-44
2022/02/28 14:03:25;;;;;;;0.47;0.47;;;;;;;;;;1878364;76;26299;-43
2022/02/28 14:05:54;;;;;;;0.50;0.50;;;;;;;;;;1874033;76;26334;-45
2022/02/28 14:08:22;;;;;;;0.47;0.47;;;;;;;;;;1889535;76;26346;-44
2022/02/28 14:10:51;;;;;;;1.17;0.40;;;;;;;;;;1873063;76;27475;-46
2022/02/28 14:13:21;;;;;;;0.37;0.37;;;;;;;;;;1875691;76;26362;-43
2022/02/28 14:15:51;;;;;;;0.60;0.60;;;;;;;;;;1872364;76;26731;-44
2022/02/28 14:18:19;;;;;;;0.60;0.60;;;;;;;;;;1867908;76;26276;-46
2022/02/28 14:20:46;;;;;;;0.50;0.50;;;;;;;;;;1872083;75;26269;-46
2022/02/28 14:23:15;;;;;;;0.40;0.40;;;;;;;;;;1883585;75;26386;-47
2022/02/28 14:25:43;;;;;;;2.47;0.50;;;;;;;;;;1878672;76;26296;-47
2022/02/28 14:28:15;;;;;;;0.40;0.40;;;;;;;;;;1888181;76;26318;-48
2022/02/28 14:30:44;;;;;;;0.50;0.50;;;;;;;;;;1866892;76;26315;-47
2022/02/28 14:33:11;;;;;;;0.50;0.50;;;;;;;;;;1874578;76;26315;-48
2022/02/28 14:35:39;;;;;;;4.58;0.60;;;;;;;;;;1881201;76;26587;-49
2022/02/28 14:38:07;;;;;;;1.27;0.70;;;;;;;;;;1875132;76;26788;-45
2022/02/28 14:40:35;;;;;;;0.75;0.50;;;;;;;;;;1876085;75;26231;-44
2022/02/28 14:43:02;;;;;;;0.57;0.57;;;;;;;;;;1863873;76;27516;-46
2022/02/28 14:45:31;;;;;;;0.68;0.68;;;;;;;;;;1880146;76;26324;-43
2022/02/28 14:47:58;;;;;;;0.50;0.50;;;;;;;;;;1871599;76;26340;-45
2022/02/28 14:50:26;;;;;;;0.60;0.60;;;;;;;;;;1871971;76;26330;-44